Time;durP1;ratioP1;P1;durP2;ratioP2;P2;SDS_P1;SDS_P2;PMS_P1;PMS_P2;Temp;Humidity;BMP_temperature;BMP_pressure;BME280_temperature;BME280_humidity;BME280_pressure;Samples;Min_cycle;Max_cycle;Signal;HPM_P1;HPM_P2
2023/12/18 00:00:17;;;;;;;38.20;15.13;;;;;;;-141.97;100.00;46625.44;5022829;28;20183;-84
2023/12/18 00:02:42;;;;;;;23.30;9.50;;;;;;;-141.97;100.00;46273.81;5012774;28;20163;-84
2023/12/18 00:05:09;;;;;;;31.70;12.90;;;;;;;-141.97;100.00;46147.03;5013346;28;20178;-84
2023/12/18 00:07:34;;;;;;;26.87;10.30;;;;;;;-141.97;100.00;46681.16;5013145;28;20246;-84
2023/12/18 00:10:00;;;;;;;22.33;9.80;;;;;;;-141.97;100.00;46122.03;5028569;28;20456;-84
2023/12/18 00:12:25;;;;;;;22.50;8.70;;;;;;;-141.97;100.00;46773.41;5014377;28;20170;-85
2023/12/18 00:14:51;;;;;;;18.20;8.57;;;;;;;-141.97;100.00;46354.53;5011712;28;20159;-84
2023/12/18 00:17:16;;;;;;;28.10;12.57;;;;;;;-141.97;100.00;46362.22;5010936;28;20197;-83
2023/12/18 00:19:42;;;;;;;24.23;10.67;;;;;;;-141.97;100.00;46143.19;5010981;28;20166;-84
2023/12/18 00:22:07;;;;;;;22.80;9.87;;;;;;;-141.97;100.00;46352.59;5012274;28;20161;-83
2023/12/18 00:24:33;;;;;;;21.50;9.37;;;;;;;-141.97;100.00;46381.41;5011929;28;20620;-84
2023/12/18 00:26:58;;;;;;;24.17;11.20;;;;;;;-141.97;100.00;46627.38;5011697;28;20159;-85
2023/12/18 00:29:23;;;;;;;23.17;10.13;;;;;;;-141.97;100.00;46535.13;5012489;28;20163;-84
2023/12/18 00:31:49;;;;;;;24.20;11.13;;;;;;;-141.97;100.00;46560.13;5011511;28;20611;-83
2023/12/18 00:34:14;;;;;;;28.47;12.37;;;;;;;-141.97;100.00;46417.94;5010539;28;20278;-84
2023/12/18 00:36:40;;;;;;;25.67;12.13;;;;;;;-141.97;100.00;46464.03;5012174;28;20293;-84
2023/12/18 00:39:08;;;;;;;27.57;12.57;;;;;;;-141.97;100.00;46660.03;5011567;28;20194;-83
2023/12/18 00:41:33;;;;;;;26.63;11.63;;;;;;;-141.97;100.00;46147.03;5014674;28;20170;-84
2023/12/18 00:43:59;;;;;;;27.30;12.47;;;;;;;-141.97;100.00;46565.88;5015167;28;20405;-84
2023/12/18 00:46:25;;;;;;;31.70;13.87;;;;;;;-141.97;100.00;46150.84;5012373;28;20630;-84
2023/12/18 00:48:51;;;;;;;26.60;12.30;;;;;;;-141.97;100.00;46173.91;5012688;28;20155;-83
2023/12/18 00:51:17;;;;;;;31.60;13.17;;;;;;;-141.97;100.00;46254.59;5011359;28;20409;-84
2023/12/18 00:53:42;;;;;;;32.07;13.13;;;;;;;-141.97;100.00;46191.22;5010661;28;20187;-84
2023/12/18 00:56:08;;;;;;;29.00;12.47;;;;;;;-141.97;100.00;46642.75;5012064;28;20171;-84
2023/12/18 00:58:33;;;;;;;27.60;12.20;;;;;;;-141.97;100.00;46392.94;5013793;28;20163;-85
2023/12/18 01:00:59;;;;;;;29.77;13.17;;;;;;;-141.97;100.00;46506.31;5012110;28;20266;-85
2023/12/18 01:03:24;;;;;;;32.93;13.83;;;;;;;-141.97;100.00;46369.88;5012654;28;20600;-86
2023/12/18 01:05:50;;;;;;;30.20;13.60;;;;;;;-141.97;100.00;46208.50;5028569;28;20163;-84
2023/12/18 01:08:15;;;;;;;32.33;13.30;;;;;;;-141.97;100.00;46519.75;5011373;28;20556;-85
2023/12/18 01:10:43;;;;;;;29.80;13.80;;;;;;;-141.97;100.00;46369.88;5031009;28;20626;-84
2023/12/18 01:13:09;;;;;;;30.17;13.00;;;;;;;-141.97;100.00;46623.53;5011400;28;20217;-84
2023/12/18 01:15:34;;;;;;;25.20;10.90;;;;;;;-141.97;100.00;46571.66;5011104;28;20819;-83
2023/12/18 01:18:00;;;;;;;27.50;11.87;;;;;;;-141.97;100.00;46220.03;5010310;28;20272;-83
2023/12/18 01:20:25;;;;;;;31.87;13.90;;;;;;;-141.97;100.00;46150.84;5026002;28;20591;-84
2023/12/18 01:22:50;;;;;;;32.80;14.63;;;;;;;-141.97;100.00;46362.22;5009675;28;20170;-84
2023/12/18 01:25:16;;;;;;;28.80;12.53;;;;;;;-141.97;100.00;46231.56;5010278;28;20612;-83
2023/12/18 01:27:41;;;;;;;26.77;12.07;;;;;;;-141.97;100.00;46302.66;5008759;28;20685;-82
2023/12/18 01:30:08;;;;;;;29.87;13.13;;;;;;;-141.97;100.00;46473.66;5010039;28;20170;-84
2023/12/18 01:32:34;;;;;;;28.27;12.77;;;;;;;-141.97;100.00;46379.50;5010217;28;20170;-85
2023/12/18 01:35:00;;;;;;;33.10;13.17;;;;;;;-141.97;100.00;46343.00;5028778;28;20456;-83
2023/12/18 01:37:25;;;;;;;32.80;13.43;;;;;;;-141.97;100.00;46289.19;5013290;28;20679;-84
2023/12/18 01:39:51;;;;;;;26.17;10.77;;;;;;;-141.97;100.00;46366.06;5011779;28;20202;-84
2023/12/18 01:42:16;;;;;;;27.90;11.90;;;;;;;-141.97;100.00;46218.09;5028141;28;20194;-83
2023/12/18 01:44:41;;;;;;;31.40;13.67;;;;;;;-141.97;100.00;46231.56;5013186;28;20258;-84
2023/12/18 01:47:08;;;;;;;30.37;13.03;;;;;;;-141.97;100.00;46344.91;5012987;28;20182;-84
2023/12/18 01:49:34;;;;;;;30.93;13.63;;;;;;;-141.97;100.00;46385.25;5013186;28;20170;-83
2023/12/18 01:51:59;;;;;;;30.70;13.40;;;;;;;-141.97;100.00;46331.47;5014078;28;20402;-84
2023/12/18 01:54:26;;;;;;;40.37;16.83;;;;;;;-141.97;100.00;46600.47;5012998;28;20534;-85
2023/12/18 01:56:53;;;;;;;39.47;16.73;;;;;;;-141.97;100.00;46366.06;5027988;28;20217;-84
2023/12/18 01:59:20;;;;;;;27.93;11.43;;;;;;;-141.97;100.00;46210.41;5012775;28;20475;-84
2023/12/18 02:01:47;;;;;;;30.17;12.07;;;;;;;-141.97;100.00;46141.25;5012605;28;20394;-84
2023/12/18 02:04:13;;;;;;;22.67;10.43;;;;;;;-141.97;100.00;46692.69;5012690;28;20429;-84
2023/12/18 02:06:39;;;;;;;22.90;10.00;;;;;;;-141.97;100.00;46294.97;5012933;28;20468;-85
2023/12/18 02:09:04;;;;;;;20.13;9.43;;;;;;;-141.97;100.00;46619.69;5014465;28;20398;-84
2023/12/18 02:11:30;;;;;;;26.27;10.30;;;;;;;-141.97;100.00;46667.72;5014510;28;20163;-85
2023/12/18 02:13:55;;;;;;;21.60;9.23;;;;;;;-141.97;100.00;46633.13;5015060;28;20547;-85
2023/12/18 02:16:22;;;;;;;17.87;8.97;;;;;;;-141.97;100.00;46661.97;5011875;28;20290;-84
2023/12/18 02:18:48;;;;;;;23.13;10.70;;;;;;;-141.97;100.00;46362.22;5011263;28;20261;-85
2023/12/18 02:21:20;;;;;;;22.97;9.17;;;;;;;-141.97;100.00;46196.97;5013051;28;20406;-85
2023/12/18 02:23:50;;;;;;;27.80;11.93;;;;;;;-141.97;100.00;46346.84;5012676;28;20171;-85
2023/12/18 02:26:16;;;;;;;24.20;10.63;;;;;;;-141.97;100.00;46358.38;5011902;28;20898;-85
2023/12/18 02:28:44;;;;;;;19.97;8.53;;;;;;;-141.97;100.00;46638.91;5028237;28;20437;-86
2023/12/18 02:31:13;;;;;;;27.60;12.90;;;;;;;-141.97;100.00;46362.22;5012828;28;20429;-85
2023/12/18 02:33:38;;;;;;;33.67;13.63;;;;;;;-141.97;100.00;46196.97;5029636;28;20801;-84
2023/12/18 02:36:04;;;;;;;27.80;10.83;;;;;;;-141.97;100.00;46750.34;5013506;28;20397;-84
2023/12/18 02:38:30;;;;;;;26.57;12.30;;;;;;;-141.97;100.00;46542.81;5013093;28;20171;-85
2023/12/18 02:40:55;;;;;;;25.67;11.30;;;;;;;-141.97;100.00;46271.91;5013434;28;20609;-85
2023/12/18 02:43:20;;;;;;;25.53;12.50;;;;;;;-141.97;100.00;46058.63;5012675;28;20159;-84
2023/12/18 02:45:46;;;;;;;28.70;12.73;;;;;;;-141.97;100.00;46233.47;5029279;28;20213;-85
2023/12/18 02:48:11;;;;;;;29.57;13.40;;;;;;;-141.97;100.00;46733.06;5013715;28;20167;-85
2023/12/18 02:50:37;;;;;;;30.40;14.80;;;;;;;-141.97;100.00;46629.28;5012677;28;20166;-84
2023/12/18 02:53:02;;;;;;;31.00;14.03;;;;;;;-141.97;100.00;46356.44;5013062;28;20170;-84
2023/12/18 02:55:28;;;;;;;31.03;13.57;;;;;;;-141.97;100.00;46246.94;5012935;28;20167;-84
2023/12/18 02:57:53;;;;;;;29.53;14.07;;;;;;;-141.97;100.00;46381.41;5014728;28;20611;-84
2023/12/18 03:00:19;;;;;;;29.83;13.20;;;;;;;-141.97;100.00;46298.81;5013731;28;20198;-85
2023/12/18 03:02:44;;;;;;;38.80;15.47;;;;;;;-141.97;100.00;46596.63;5013509;28;20245;-84
2023/12/18 03:05:10;;;;;;;33.47;15.83;;;;;;;-141.97;100.00;46669.63;5016349;28;20242;-85
2023/12/18 03:07:35;;;;;;;34.07;16.87;;;;;;;-141.97;100.00;46350.69;5013564;28;20174;-85
2023/12/18 03:10:01;;;;;;;34.83;15.90;;;;;;;-141.97;100.00;46216.19;5011609;28;20170;-83
2023/12/18 03:12:26;;;;;;;30.90;14.03;;;;;;;-141.97;100.00;46218.09;5012404;28;20177;-84
2023/12/18 03:14:52;;;;;;;29.70;12.93;;;;;;;-141.97;100.00;46339.16;5012747;28;20177;-84
2023/12/18 03:17:18;;;;;;;31.90;13.20;;;;;;;-141.97;100.00;46794.53;5011328;28;20191;-84
2023/12/18 03:19:43;;;;;;;26.67;12.23;;;;;;;-141.97;100.00;46563.97;5010483;28;20318;-84
2023/12/18 03:22:08;;;;;;;26.67;11.10;;;;;;;-141.97;100.00;46335.31;5027443;28;20191;-84
2023/12/18 03:24:34;;;;;;;23.53;11.13;;;;;;;-141.97;100.00;46373.72;5010232;28;20162;-83
2023/12/18 03:26:59;;;;;;;24.90;12.00;;;;;;;-141.97;100.00;46673.47;5012106;28;20205;-85
2023/12/18 03:29:25;;;;;;;26.27;11.23;;;;;;;-141.97;100.00;46120.13;5010113;28;20182;-84
2023/12/18 03:31:50;;;;;;;23.90;10.60;;;;;;;-141.97;100.00;46281.50;5011149;28;20165;-84
2023/12/18 03:34:16;;;;;;;24.67;10.40;;;;;;;-141.97;100.00;46398.72;5010284;28;20181;-83
2023/12/18 03:36:41;;;;;;;23.13;10.07;;;;;;;-141.97;100.00;46519.75;5011988;28;20563;-84
2023/12/18 03:39:06;;;;;;;25.47;10.83;;;;;;;-141.97;100.00;46790.69;5011326;28;20198;-84
2023/12/18 03:41:32;;;;;;;21.00;8.63;;;;;;;-141.97;100.00;46231.56;5010382;28;20170;-83
2023/12/18 03:43:57;;;;;;;22.60;10.07;;;;;;;-141.97;100.00;46285.34;5026600;28;20178;-84
2023/12/18 03:46:24;;;;;;;22.00;9.90;;;;;;;-141.97;100.00;46569.72;5012218;28;20523;-84
2023/12/18 03:48:49;;;;;;;23.50;8.03;;;;;;;-141.97;100.00;46454.44;5011262;28;20225;-84
2023/12/18 03:51:14;;;;;;;20.33;8.47;;;;;;;-141.97;100.00;46254.59;5010140;28;20402;-83
2023/12/18 03:53:40;;;;;;;20.57;9.03;;;;;;;-141.97;100.00;46310.31;5011832;28;20166;-84
2023/12/18 03:56:06;;;;;;;21.43;9.20;;;;;;;-141.97;100.00;46252.69;5013729;28;20158;-84
2023/12/18 03:58:31;;;;;;;17.90;8.40;;;;;;;-141.97;100.00;46734.97;5011076;28;20573;-85
2023/12/18 04:00:56;;;;;;;20.87;9.33;;;;;;;-141.97;100.00;46379.50;5026157;28;20171;-84
2023/12/18 04:03:22;;;;;;;20.60;9.33;;;;;;;-141.97;100.00;46268.06;5009855;28;20261;-84
2023/12/18 04:05:47;;;;;;;23.47;9.53;;;;;;;-141.97;100.00;46321.84;5010606;28;20639;-84
2023/12/18 04:08:12;;;;;;;21.60;8.33;;;;;;;-141.97;100.00;46350.69;5010423;28;20155;-85
2023/12/18 04:10:38;;;;;;;19.67;9.47;;;;;;;-141.97;100.00;46358.38;5009320;28;20610;-83
2023/12/18 04:13:03;;;;;;;26.20;11.03;;;;;;;-141.97;100.00;46173.91;5010223;28;20643;-84
2023/12/18 04:15:29;;;;;;;64.33;28.57;;;;;;;-141.97;100.00;46193.13;5010778;28;20163;-83
2023/12/18 04:17:55;;;;;;;56.43;24.33;;;;;;;-141.97;100.00;46635.06;5009916;28;20321;-84
2023/12/18 04:20:21;;;;;;;43.00;19.23;;;;;;;-141.97;100.00;46112.44;5011880;28;20166;-84
2023/12/18 04:22:46;;;;;;;42.80;19.03;;;;;;;-141.97;100.00;46235.41;5010558;28;20261;-84
2023/12/18 04:25:12;;;;;;;56.10;24.10;;;;;;;-141.97;100.00;46196.97;5012202;28;20444;-84
2023/12/18 04:27:37;;;;;;;54.03;22.40;;;;;;;-141.97;100.00;46646.59;5012911;28;20202;-84
2023/12/18 04:30:03;;;;;;;34.07;15.77;;;;;;;-141.97;100.00;46746.50;5011181;28;20202;-84
2023/12/18 04:32:29;;;;;;;103.77;39.10;;;;;;;-141.97;100.00;46298.81;5025901;28;20171;-84
2023/12/18 04:34:54;;;;;;;67.80;30.63;;;;;;;-141.97;100.00;46204.66;5010248;28;20166;-85
2023/12/18 04:37:20;;;;;;;50.37;23.67;;;;;;;-141.97;100.00;46293.03;5010482;28;20202;-85
2023/12/18 04:39:45;;;;;;;57.47;22.17;;;;;;;-141.97;100.00;46746.50;5016530;28;20184;-84
2023/12/18 04:42:10;;;;;;;36.03;16.23;;;;;;;-141.97;100.00;46352.59;5034100;28;20197;-84
2023/12/18 04:44:36;;;;;;;33.83;15.70;;;;;;;-141.97;100.00;46189.28;5033360;28;20203;-85
2023/12/18 04:47:02;;;;;;;37.47;17.20;;;;;;;-141.97;100.00;46494.78;5026974;28;20186;-83
2023/12/18 04:49:27;;;;;;;25.53;11.77;;;;;;;-141.97;100.00;46631.22;5025840;28;20646;-85
2023/12/18 04:51:52;;;;;;;26.37;10.67;;;;;;;-141.97;100.00;46648.50;5025443;28;20262;-83
2023/12/18 04:54:18;;;;;;;21.80;10.00;;;;;;;-141.97;100.00;46377.56;5020632;28;20198;-83
2023/12/18 04:56:43;;;;;;;22.73;10.00;;;;;;;-141.97;100.00;46231.56;5011749;28;20208;-84
2023/12/18 04:59:10;;;;;;;23.77;10.63;;;;;;;-141.97;100.00;46654.28;5011557;28;20170;-84
2023/12/18 05:01:36;;;;;;;32.17;13.70;;;;;;;-141.97;100.00;46210.41;5010676;28;20163;-85
2023/12/18 05:04:02;;;;;;;31.37;13.20;;;;;;;-141.97;100.00;46337.22;5011642;28;20505;-83
2023/12/18 05:06:28;;;;;;;33.73;15.40;;;;;;;-141.97;100.00;46316.09;5012503;28;20588;-86
2023/12/18 05:08:54;;;;;;;39.27;19.23;;;;;;;-141.97;100.00;46538.97;5012710;28;20257;-84
2023/12/18 05:11:21;;;;;;;40.10;18.53;;;;;;;-141.97;100.00;46371.81;5013535;28;20409;-84
2023/12/18 05:13:47;;;;;;;37.60;16.47;;;;;;;-141.97;100.00;46367.97;5014087;28;20430;-84
2023/12/18 05:16:14;;;;;;;29.23;12.27;;;;;;;-141.97;100.00;46366.06;5015816;28;20441;-86
2023/12/18 05:18:39;;;;;;;24.50;11.67;;;;;;;-141.97;100.00;46779.16;5015298;28;20226;-85
2023/12/18 05:21:06;;;;;;;30.53;13.50;;;;;;;-141.97;100.00;46231.56;5013112;28;20898;-84
2023/12/18 05:23:31;;;;;;;29.13;13.27;;;;;;;-141.97;100.00;46590.84;5012953;28;20599;-83
2023/12/18 05:25:57;;;;;;;23.57;11.30;;;;;;;-141.97;100.00;46650.44;4996976;28;20464;-84
2023/12/18 05:28:22;;;;;;;37.47;18.77;;;;;;;-141.97;100.00;46500.56;4913981;29;20231;-84
2023/12/18 05:30:48;;;;;;;40.80;18.00;;;;;;;-141.97;100.00;46379.50;4929040;28;20653;-85
2023/12/18 05:33:13;;;;;;;35.20;17.33;;;;;;;-141.97;100.00;46373.72;4912540;29;20218;-85
2023/12/18 05:35:39;;;;;;;56.97;22.50;;;;;;;-141.97;100.00;46642.75;4911817;28;20268;-85
2023/12/18 05:38:06;;;;;;;52.10;22.87;;;;;;;-141.97;100.00;46671.56;4929155;28;20202;-85
2023/12/18 05:40:31;;;;;;;49.93;23.03;;;;;;;-141.97;100.00;46631.22;4913302;28;20166;-85
2023/12/18 05:42:57;;;;;;;68.93;34.47;;;;;;;-141.97;100.00;46246.94;4913286;29;20424;-84
2023/12/18 05:45:22;;;;;;;71.57;35.90;;;;;;;-141.97;100.00;46538.97;4914009;29;20170;-84
2023/12/18 05:47:48;;;;;;;50.57;24.57;;;;;;;-141.97;100.00;46635.06;4995679;28;20244;-85
2023/12/18 05:50:13;;;;;;;46.87;22.00;;;;;;;-141.97;100.00;46669.63;4913401;29;20174;-85
2023/12/18 05:52:39;;;;;;;48.57;22.67;;;;;;;-141.97;100.00;46623.53;4928542;28;20343;-85
2023/12/18 05:55:04;;;;;;;40.27;19.33;;;;;;;-141.97;100.00;46262.28;4995719;28;20594;-85
2023/12/18 05:57:30;;;;;;;39.17;17.03;;;;;;;-141.97;100.00;46195.06;4995355;28;20198;-85
2023/12/18 05:59:55;;;;;;;31.57;14.47;;;;;;;-141.97;100.00;46661.97;4997114;28;20178;-84
2023/12/18 06:02:21;;;;;;;24.63;12.00;;;;;;;-141.97;100.00;46690.78;4929351;28;20181;-83
2023/12/18 06:04:46;;;;;;;29.03;13.73;;;;;;;-141.97;100.00;46383.34;4913859;29;20249;-84
2023/12/18 06:07:12;;;;;;;30.67;15.97;;;;;;;-141.97;100.00;46308.41;4914048;29;20357;-84
2023/12/18 06:09:38;;;;;;;60.53;29.83;;;;;;;-141.97;100.00;46648.50;4914348;28;20331;-84
2023/12/18 06:12:05;;;;;;;79.00;35.97;;;;;;;-141.97;100.00;46323.78;4930280;28;20196;-85
2023/12/18 06:14:30;;;;;;;86.17;42.57;;;;;;;-141.97;100.00;46540.91;4915017;28;20493;-84
2023/12/18 06:16:56;;;;;;;71.97;34.60;;;;;;;-141.97;100.00;46308.41;4912065;29;20472;-85
2023/12/18 06:19:21;;;;;;;86.60;41.53;;;;;;;-141.97;100.00;46633.13;4912584;28;20229;-84
2023/12/18 06:21:47;;;;;;;68.53;33.53;;;;;;;-141.97;100.00;46285.34;4927122;28;20182;-84
2023/12/18 06:24:12;;;;;;;48.13;23.90;;;;;;;-141.97;100.00;46118.19;4993851;28;20178;-85
2023/12/18 06:26:37;;;;;;;35.20;17.87;;;;;;;-141.97;100.00;46683.09;4912753;29;20174;-84
2023/12/18 06:29:03;;;;;;;46.10;23.00;;;;;;;-141.97;100.00;46335.31;4914568;28;20220;-85
2023/12/18 06:31:28;;;;;;;40.20;20.53;;;;;;;-141.97;99.07;46227.72;4914107;29;20203;-84
2023/12/18 06:33:54;;;;;;;34.20;17.30;;;;;;;-141.97;95.77;46123.97;4927648;28;20174;-84
2023/12/18 06:36:19;;;;;;;49.53;23.10;;;;;;;-141.97;94.14;46112.44;4913353;28;20174;-85
2023/12/18 06:38:45;;;;;;;62.50;28.23;;;;;;;-141.97;95.40;46306.50;4912128;28;20213;-85
2023/12/18 06:41:11;;;;;;;59.50;31.00;;;;;;;-141.97;96.86;46294.97;4914647;28;20641;-84
2023/12/18 06:43:37;;;;;;;47.80;24.17;;;;;;;-141.97;96.86;46646.59;4916126;29;20411;-85
2023/12/18 06:46:02;;;;;;;35.83;19.90;;;;;;;-141.97;97.16;46531.28;4914684;28;20174;-85
2023/12/18 06:48:28;;;;;;;47.23;26.40;;;;;;;-141.97;97.43;46025.97;4913577;29;20525;-85
2023/12/18 06:50:53;;;;;;;75.87;38.77;;;;;;;-141.97;97.85;46465.97;4912210;28;20555;-84
2023/12/18 06:53:19;;;;;;;81.00;40.50;;;;;;;-141.97;97.63;46112.44;4993863;28;20726;-86
2023/12/18 06:55:44;;;;;;;80.80;37.10;;;;;;;-141.97;89.81;46245.00;4912632;29;20320;-86
2023/12/18 06:58:10;;;;;;;401.70;124.83;;;;;;;-141.97;81.21;46196.97;4916006;28;20340;-86
2023/12/18 07:00:35;;;;;;;117.30;46.93;;;;;;;-141.97;75.76;46014.44;4913700;29;20177;-86
2023/12/18 07:03:01;;;;;;;188.13;62.77;;;;;;;-141.97;52.20;46318.00;4995009;28;20181;-86
2023/12/18 07:05:29;;;;;;;445.67;126.57;;;;;;;-141.97;50.31;45989.47;4912266;29;20178;-83
2023/12/18 07:07:57;;;;;;;114.93;43.90;;;;;;;-141.97;48.57;46427.53;4910889;28;20181;-85
2023/12/18 07:10:22;;;;;;;83.33;41.77;;;;;;;-141.97;47.78;45916.47;4926402;28;20219;-87
2023/12/18 07:12:48;;;;;;;87.87;47.37;;;;;;;-141.97;44.65;45954.91;4993458;28;20607;-84
2023/12/18 07:15:14;;;;;;;80.20;39.97;;;;;;;-141.97;42.96;46406.41;4911757;28;20201;-86
2023/12/18 07:17:40;;;;;;;94.50;49.73;;;;;;;-141.97;41.38;45993.31;4993393;28;20241;-83
2023/12/18 07:20:08;;;;;;;155.87;72.07;;;;;;;-141.97;42.05;46308.41;4910516;29;20182;-85
2023/12/18 07:22:33;;;;;;;93.03;46.10;;;;;;;-141.97;42.69;45897.25;4912092;28;20213;-85
2023/12/18 07:24:59;;;;;;;89.60;45.53;;;;;;;-141.97;42.13;45935.69;4911495;29;20623;-84
2023/12/18 07:27:24;;;;;;;77.20;40.77;;;;;;;-141.97;43.55;46339.16;4911840;29;20232;-84
2023/12/18 07:29:50;;;;;;;64.27;35.03;;;;;;;-141.97;46.53;46358.38;4912830;29;20601;-84
2023/12/18 07:32:15;;;;;;;50.13;28.40;;;;;;;-141.97;49.08;45912.63;4927064;28;20265;-84
2023/12/18 07:34:41;;;;;;;58.33;28.50;;;;;;;-141.97;51.27;46425.63;4911819;29;20158;-85
2023/12/18 07:37:06;;;;;;;78.43;31.37;;;;;;;-141.97;53.77;46112.44;4910644;28;20317;-83
2023/12/18 07:39:32;;;;;;;237.30;70.87;;;;;;;-141.97;55.61;46308.41;4910480;29;20178;-86
2023/12/18 07:41:57;;;;;;;128.13;48.43;;;;;;;-141.97;56.89;46354.53;4910220;29;20574;-85
2023/12/18 07:44:23;;;;;;;49.00;23.10;;;;;;;-141.97;56.27;46504.38;4992776;28;20186;-85
2023/12/18 07:46:50;;;;;;;42.57;21.37;;;;;;;-141.97;56.72;46200.81;4993590;28;20650;-85
2023/12/18 07:49:16;;;;;;;36.53;18.67;;;;;;;-141.97;56.13;46133.56;4919373;29;20158;-85
2023/12/18 07:51:41;;;;;;;42.33;21.50;;;;;;;-141.97;56.05;45966.44;4912972;29;20166;-85
2023/12/18 07:54:07;;;;;;;34.17;18.13;;;;;;;-141.97;55.23;46074.00;4911951;29;20172;-85
2023/12/18 07:56:32;;;;;;;40.80;21.20;;;;;;;-141.97;55.06;46114.34;4910669;28;20259;-85
2023/12/18 07:58:58;;;;;;;49.77;26.20;;;;;;;-141.97;55.51;46004.84;4912238;28;20174;-84
2023/12/18 08:01:24;;;;;;;56.27;27.80;;;;;;;-141.97;55.13;46181.59;4916988;28;20228;-85
2023/12/18 08:03:50;;;;;;;46.70;24.00;;;;;;;-141.97;55.34;46162.38;4910624;29;20623;-85
2023/12/18 08:06:15;;;;;;;46.47;24.67;;;;;;;-141.97;56.13;46058.63;4911600;28;20197;-84
2023/12/18 08:08:40;;;;;;;35.57;19.23;;;;;;;-141.97;55.43;46089.38;4910401;29;20182;-84
2023/12/18 08:11:06;;;;;;;24.77;11.97;;;;;;;-141.97;58.06;46417.94;4993407;28;20273;-84
2023/12/18 08:13:37;;;;;;;30.17;16.13;;;;;;;-141.97;58.79;46173.91;4911255;29;20162;-84
2023/12/18 08:16:04;;;;;;;59.37;27.23;;;;;;;-141.97;57.68;46135.50;4911756;28;20173;-83
2023/12/18 08:18:29;;;;;;;25.17;12.47;;;;;;;-141.97;57.96;46033.66;4911165;29;20785;-82
2023/12/18 08:20:55;;;;;;;47.50;19.63;;;;;;;-141.97;57.63;46156.63;4911433;28;20278;-85
2023/12/18 08:23:21;;;;;;;31.97;15.27;;;;;;;-141.97;58.23;46173.91;4911260;28;20174;-86
2023/12/18 08:25:46;;;;;;;36.27;18.50;;;;;;;-141.97;58.04;46127.81;4911393;28;20245;-85
2023/12/18 08:28:11;;;;;;;38.87;17.70;;;;;;;-141.97;57.25;46490.94;4909916;29;20294;-84
2023/12/18 08:30:37;;;;;;;30.00;13.50;;;;;;;-141.97;58.20;46223.88;4926103;28;20178;-84
2023/12/18 08:33:02;;;;;;;28.50;14.60;;;;;;;-141.97;58.22;46106.66;4931473;28;20629;-84
2023/12/18 08:35:28;;;;;;;19.70;11.73;;;;;;;-141.97;57.32;46465.97;5010181;28;20166;-83
2023/12/18 08:37:53;;;;;;;27.50;13.33;;;;;;;-141.97;57.00;46529.38;5009127;28;20219;-83
2023/12/18 08:40:19;;;;;;;25.43;13.03;;;;;;;-141.97;56.72;46189.28;5010465;28;20173;-85
2023/12/18 08:42:44;;;;;;;23.77;13.13;;;;;;;-141.97;55.73;46047.13;5012910;28;20175;-84
2023/12/18 08:45:09;;;;;;;22.67;12.17;;;;;;;-141.97;55.46;46193.13;5014566;28;20238;-83
2023/12/18 08:47:35;;;;;;;14.67;8.53;;;;;;;-141.97;56.57;46164.31;5014161;28;20163;-84
2023/12/18 08:50:00;;;;;;;19.03;10.27;;;;;;;-141.97;57.90;46646.59;5014096;28;20555;-84
2023/12/18 08:52:26;;;;;;;17.03;9.43;;;;;;;-141.97;57.93;46031.75;5014272;28;20586;-84
2023/12/18 08:54:51;;;;;;;18.57;9.80;;;;;;;-141.97;56.91;46150.84;5014648;28;20194;-84
2023/12/18 08:57:17;;;;;;;19.57;11.13;;;;;;;-141.97;55.76;46089.38;5037375;28;20297;-84
2023/12/18 08:59:42;;;;;;;20.90;10.90;;;;;;;-141.97;55.25;46008.69;5034899;28;20198;-84
2023/12/18 09:02:08;;;;;;;22.80;11.53;;;;;;;-141.97;56.60;46423.69;5030717;28;20170;-84
2023/12/18 09:04:33;;;;;;;16.70;9.90;;;;;;;-141.97;55.97;46075.94;5033035;28;20150;-84
2023/12/18 09:06:58;;;;;;;13.17;8.27;;;;;;;-141.97;55.36;45989.47;5035499;28;20244;-83
2023/12/18 09:09:24;;;;;;;14.60;8.00;;;;;;;-141.97;54.12;46012.53;5024520;28;20619;-83
2023/12/18 09:11:49;;;;;;;15.30;7.80;;;;;;;-141.97;52.39;46341.06;5015012;28;20197;-84
2023/12/18 09:14:15;;;;;;;25.93;12.30;;;;;;;-141.97;52.94;45976.03;5017193;28;20186;-85
2023/12/18 09:16:40;;;;;;;22.47;11.00;;;;;;;-141.97;51.84;46143.19;5013339;28;20356;-83
2023/12/18 09:19:06;;;;;;;16.17;9.17;;;;;;;-141.97;51.59;46314.16;5013799;28;20238;-84
2023/12/18 09:21:31;;;;;;;37.63;21.07;;;;;;;-141.97;51.31;46419.84;5015807;28;20183;-84
2023/12/18 09:23:57;;;;;;;11.83;6.63;;;;;;;-141.97;52.57;46350.69;5013961;28;20337;-83
2023/12/18 09:26:22;;;;;;;38.47;20.73;;;;;;;-141.97;52.54;46097.06;5012273;28;20178;-83
2023/12/18 09:28:47;;;;;;;43.63;20.80;;;;;;;-141.97;51.42;45970.25;5014436;28;20506;-84
2023/12/18 09:31:15;;;;;;;27.37;14.70;;;;;;;-141.97;51.77;46531.28;5013807;28;20626;-83
2023/12/18 09:33:40;;;;;;;160.97;53.20;;;;;;;-141.97;51.16;46216.19;5014529;28;20238;-84
2023/12/18 09:36:07;;;;;;;105.27;48.83;;;;;;;-141.97;51.74;45943.38;5012576;28;20186;-82
2023/12/18 09:38:33;;;;;;;44.73;23.57;;;;;;;-141.97;49.98;46473.66;5029789;28;20201;-83
2023/12/18 09:40:58;;;;;;;32.67;17.73;;;;;;;-141.97;49.75;45954.91;5014669;28;20253;-84
2023/12/18 09:43:26;;;;;;;27.80;15.90;;;;;;;-141.97;51.21;46097.06;5013538;28;20170;-84
2023/12/18 09:45:53;;;;;;;22.77;12.57;;;;;;;-141.97;50.89;46043.28;5012206;28;20577;-84
2023/12/18 09:48:18;;;;;;;30.57;16.60;;;;;;;-141.97;50.32;46081.69;5013131;28;20163;-83
2023/12/18 09:50:45;;;;;;;27.50;15.47;;;;;;;-141.97;50.45;46072.09;5011581;28;20532;-83
2023/12/18 09:53:13;;;;;;;40.13;20.00;;;;;;;-141.97;50.03;46081.69;5010767;28;20285;-84
2023/12/18 09:55:40;;;;;;;28.47;14.43;;;;;;;-141.97;49.70;46060.56;5013179;28;20242;-83
2023/12/18 09:58:11;;;;;;;27.70;14.27;;;;;;;-141.97;50.55;46279.59;5012439;28;20187;-83
2023/12/18 10:00:37;;;;;;;70.27;30.97;;;;;;;-141.97;49.75;45964.50;5013164;28;20260;-84
2023/12/18 10:03:03;;;;;;;63.50;26.70;;;;;;;-141.97;49.42;45912.63;5013712;28;20155;-84
2023/12/18 10:05:29;;;;;;;22.57;13.80;;;;;;;-141.97;49.98;45906.88;5013139;28;20218;-83
2023/12/18 10:07:58;;;;;;;34.23;18.60;;;;;;;-141.97;49.59;46231.56;5011794;28;20175;-83
2023/12/18 10:10:24;;;;;;;36.53;18.20;;;;;;;-141.97;50.26;46489.03;5014083;28;20170;-82
2023/12/18 10:12:49;;;;;;;22.67;12.13;;;;;;;-141.97;49.92;46070.16;5014744;28;20547;-83
2023/12/18 10:15:15;;;;;;;45.10;23.70;;;;;;;-141.97;49.85;46062.47;5013112;28;20581;-83
2023/12/18 10:17:41;;;;;;;40.07;21.20;;;;;;;-141.97;50.82;45987.56;5012381;28;20655;-83
2023/12/18 10:20:08;;;;;;;39.57;20.33;;;;;;;-141.97;50.15;46465.97;5012180;28;20249;-82
2023/12/18 10:22:34;;;;;;;44.90;22.00;;;;;;;-141.97;49.58;45952.97;5012174;28;20163;-83
2023/12/18 10:24:59;;;;;;;18.33;11.07;;;;;;;-141.97;50.08;45847.31;5012423;28;20365;-83
2023/12/18 10:27:25;;;;;;;16.27;9.97;;;;;;;-141.97;51.04;45912.63;5010916;28;20689;-83
2023/12/18 10:29:53;;;;;;;15.97;9.17;;;;;;;-141.97;51.55;45966.44;5013114;28;20318;-83
2023/12/18 10:32:22;;;;;;;20.17;10.40;;;;;;;-141.97;51.70;45951.06;5012465;28;20242;-83
2023/12/18 10:34:49;;;;;;;9.30;5.73;;;;;;;-141.97;51.05;46004.84;5010962;28;20726;-83
2023/12/18 10:37:16;;;;;;;16.13;9.87;;;;;;;-141.97;52.18;45962.59;5011790;28;20194;-82
2023/12/18 10:39:42;;;;;;;11.60;7.40;;;;;;;-141.97;51.20;45872.28;5012215;28;20162;-83
2023/12/18 10:42:23;;;;;;;13.30;7.33;;;;;;;-141.97;49.69;46018.28;5011861;28;20170;-83
2023/12/18 10:44:50;;;;;;;17.27;9.37;;;;;;;-141.97;51.04;45966.44;5028067;28;20193;-83
2023/12/18 10:47:16;;;;;;;13.60;8.90;;;;;;;-141.97;51.59;46116.28;5027178;28;20544;-83
2023/12/18 10:49:44;;;;;;;18.53;10.43;;;;;;;-141.97;52.09;45935.69;5011699;28;20159;-83